Lewisville, ID (83431)

2:01 AM MDT on September 20, 2014 (GMT -0600)
Garfield Area | Change Station
CLOSE
Current Station
Personal Weather Station
Location: Rigby, ID
Elevation: 4820 ft
Nearby Weather Stations

Elev 4820 ft 43.64 °N, 111.96 °W | Updated 5 minutes ago

Clear
Clear
50.4 °F
Feels Like 50.4 °F
N
0.0
Wind Variable Wind from East
Gusts 4.0 mph

Today
High -- | Low -- °F
--% Chance of Precip.
Yesterday
High -- | Low -- °F
Precip. -- in
7:13 AM 7:28 PM
Waning Crescent, 14% visible
Pressure 30.07 in
Visibility 10.0 miles
Clouds Clear
Dew Point 42 °F
Humidity 73%
Rainfall 0.00 in
Snow Depth Not available.
UV 0 out of 12
Pollen 6.40 out of 12
PM2.5 Good
Flu Activity Not available.
METAR KIDA 200753Z AUTO 20004KT 10SM CLR 12/06 A3017 RMK AO2 SLP182 T01170061

More Conditions Fewer Conditions

Pressure 30.07 in
Visibility 10.0 miles
Clouds Clear
Dew Point 42 °F
Humidity 73%
Rainfall 0.00 in
Snow Depth Not available.
UV 0 out of 12
Pollen 6.40 out of 12
PM2.5 Good
Flu Activity Not available.
METAR KIDA 200753Z AUTO 20004KT 10SM CLR 12/06 A3017 RMK AO2 SLP182 T01170061

More Conditions Fewer Conditions

10-Day Weather Forecast

Almanac

Astronomy

Sep. 20, 2014 Rise Set
Actual Time 7:13 AM MDT 7:28 PM MDT
Civil Twilight 6:44 AM MDT 7:57 PM MDT
Nautical Twilight 6:10 AM MDT 8:31 PM MDT
Astronomical Twilight 5:35 AM MDT 9:05 PM MDT
Moon 3:50 AM MDT 5:38 PM MDT
Length of Visible Light 13h 13m
Length of Day
12h 15m
Tomorrow will be 2m 58s shorter.
Waning Crescent, 14% of the Moon is Illuminated
Today
Waning Crescent
Sep 24
New
Oct 1
First Quarter
Oct 8
Full
Oct 15
Last Quarter

Today's Extremes

State Highs State Lows

Community

WunderPhotos

Upload Photos

1,754,793 photos uploaded!

WunderBlogs® & News

Nearby

Air Quality

  Air Quality AQ Index Pollutant
Yesterday Good
PM2.5
Current Good
PM2.5
Saturday Good
PM2.5
Sunday Good
PM2.5
Monday Good
PM2.5

Snow Depth

Station Depth Elevation
Mud Flat 1 in 5730 ft
Schwartz Lake 0 in 8620 ft
Crater Meadows 0 in 5960 ft
Deadwood Summit 0 in 6860 ft
Mill Creek Summit 1 in 8800 ft

Earthquake Activity

City Distance Mag. Time & Date
No recent earthquake activity has been reported nearby.
Minimum magnitude displayed is 2.5.

Coastal Water Temperatures

Place Temperature
No Stations Reporting

Nearby Weather Stations